createdAt,value
2019-01-24T00:00:15.664Z,0.00
2019-01-24T00:01:15.686Z,0.00
2019-01-24T00:02:15.703Z,0.00
2019-01-24T00:03:15.727Z,0.00
2019-01-24T00:04:16.878Z,0.00
2019-01-24T00:05:15.766Z,0.00
2019-01-24T00:06:15.787Z,0.00
2019-01-24T00:07:15.808Z,0.00
2019-01-24T00:08:15.830Z,0.00
2019-01-24T00:09:15.850Z,0.00
2019-01-24T00:10:15.872Z,0.00
2019-01-24T00:11:15.892Z,0.00
2019-01-24T00:12:15.917Z,0.00
2019-01-24T00:13:15.933Z,0.00
2019-01-24T00:14:15.952Z,0.00
2019-01-24T00:15:15.976Z,0.00
2019-01-24T00:16:16.015Z,0.00
2019-01-24T00:17:16.013Z,0.00
2019-01-24T00:18:16.094Z,0.00
2019-01-24T00:19:16.054Z,0.00
2019-01-24T00:20:16.079Z,0.00
2019-01-24T00:21:16.097Z,0.00
2019-01-24T00:22:16.118Z,0.00
2019-01-24T00:23:16.140Z,0.00
2019-01-24T00:24:16.159Z,0.00
2019-01-24T00:25:16.183Z,0.00
2019-01-24T00:26:16.198Z,0.00
2019-01-24T00:27:16.222Z,0.00
2019-01-24T00:28:16.240Z,0.00
2019-01-24T00:29:16.263Z,0.00
2019-01-24T00:30:16.286Z,0.00
2019-01-24T00:31:16.307Z,0.00
2019-01-24T00:32:16.323Z,0.00
2019-01-24T00:33:16.344Z,0.00
2019-01-24T00:34:16.364Z,0.00
2019-01-24T00:35:16.384Z,0.00
2019-01-24T00:36:16.405Z,0.00
2019-01-24T00:37:16.435Z,0.00
2019-01-24T00:38:16.450Z,0.00
2019-01-24T00:39:16.466Z,0.00
2019-01-24T00:40:16.487Z,0.00
2019-01-24T00:41:16.509Z,0.00
2019-01-24T00:42:16.528Z,0.00
2019-01-24T00:43:16.548Z,0.00
2019-01-24T00:44:16.576Z,0.00
2019-01-24T00:45:16.588Z,0.00
2019-01-24T00:46:16.611Z,0.00
2019-01-24T00:47:16.631Z,0.00
2019-01-24T00:48:16.652Z,0.00
2019-01-24T00:49:16.670Z,0.00
2019-01-24T00:50:16.695Z,0.00
2019-01-24T00:51:16.713Z,0.00
2019-01-24T00:52:16.732Z,0.00
2019-01-24T00:53:16.752Z,0.00
2019-01-24T00:54:16.774Z,0.00
2019-01-24T00:55:16.794Z,0.00
2019-01-24T00:56:16.816Z,0.00
2019-01-24T00:57:16.834Z,0.00
2019-01-24T00:58:16.857Z,0.00
2019-01-24T00:59:16.875Z,0.00
2019-01-24T01:00:16.901Z,0.00
2019-01-24T01:01:16.919Z,0.00
2019-01-24T01:02:16.944Z,0.00
2019-01-24T01:03:16.960Z,0.00
2019-01-24T01:04:16.978Z,0.00
2019-01-24T01:05:16.997Z,0.00
2019-01-24T01:06:17.019Z,0.00
2019-01-24T01:07:17.039Z,0.00
2019-01-24T01:08:17.067Z,0.00
2019-01-24T01:09:17.078Z,0.00
2019-01-24T01:10:17.102Z,0.00
2019-01-24T01:11:17.122Z,0.00
2019-01-24T01:12:17.142Z,0.00
2019-01-24T01:13:17.160Z,0.00
2019-01-24T01:14:17.182Z,0.00
2019-01-24T01:15:17.203Z,0.00
2019-01-24T01:16:17.225Z,0.00
2019-01-24T01:17:17.240Z,0.00
2019-01-24T01:18:17.262Z,0.00
2019-01-24T01:19:17.282Z,0.00
2019-01-24T01:20:17.303Z,0.00
2019-01-24T01:21:17.323Z,0.00
2019-01-24T01:22:17.345Z,0.00
2019-01-24T01:23:17.364Z,0.00
2019-01-24T01:24:17.384Z,0.00
2019-01-24T01:25:17.407Z,0.00
2019-01-24T01:26:17.429Z,0.00
2019-01-24T01:27:17.445Z,0.00
2019-01-24T01:28:17.466Z,0.00
2019-01-24T01:29:17.484Z,0.00
2019-01-24T01:30:17.506Z,0.00
2019-01-24T01:31:17.526Z,0.00
2019-01-24T01:32:17.547Z,0.00
2019-01-24T01:33:17.564Z,0.00
2019-01-24T01:34:17.588Z,0.00
2019-01-24T01:35:17.606Z,0.00
2019-01-24T01:36:17.624Z,0.00
2019-01-24T01:37:17.648Z,0.00
2019-01-24T01:38:17.665Z,0.00
2019-01-24T01:39:17.687Z,0.00
2019-01-24T01:40:17.708Z,0.00
2019-01-24T01:41:17.725Z,0.00
2019-01-24T01:42:17.745Z,0.00
2019-01-24T01:43:17.767Z,0.00
2019-01-24T01:44:17.786Z,0.00
2019-01-24T01:45:17.804Z,0.00
2019-01-24T01:46:17.828Z,0.00
2019-01-24T01:47:17.847Z,0.00
2019-01-24T01:48:17.868Z,0.00
2019-01-24T01:49:17.886Z,0.00
2019-01-24T01:50:17.906Z,0.00
2019-01-24T01:51:17.926Z,0.00
2019-01-24T01:52:17.946Z,0.00
2019-01-24T01:53:17.968Z,0.00
2019-01-24T01:54:17.985Z,0.00
2019-01-24T01:55:18.006Z,0.00
2019-01-24T01:56:18.026Z,0.00
2019-01-24T01:57:18.048Z,0.00
2019-01-24T01:58:18.066Z,0.00
2019-01-24T01:59:18.087Z,0.00
2019-01-24T02:00:18.112Z,0.00
2019-01-24T02:01:18.128Z,0.00
2019-01-24T02:02:18.146Z,0.00
2019-01-24T02:03:18.166Z,0.00
2019-01-24T02:04:18.188Z,0.00
2019-01-24T02:05:18.208Z,0.00
2019-01-24T02:06:18.233Z,0.00
2019-01-24T02:07:18.246Z,0.00
2019-01-24T02:08:18.266Z,0.00
2019-01-24T02:09:18.289Z,0.00
2019-01-24T02:10:18.306Z,0.00
2019-01-24T02:11:18.332Z,0.00
2019-01-24T02:12:18.351Z,0.00
2019-01-24T02:13:18.366Z,0.00
2019-01-24T02:14:18.387Z,0.00
2019-01-24T02:15:18.406Z,0.00
2019-01-24T02:16:18.429Z,0.00
2019-01-24T02:17:18.445Z,0.00
2019-01-24T02:18:18.467Z,0.00
2019-01-24T02:19:18.487Z,0.00
2019-01-24T02:20:18.508Z,0.00
2019-01-24T02:21:18.529Z,0.00
2019-01-24T02:22:18.550Z,0.00
2019-01-24T02:23:18.567Z,0.00
2019-01-24T02:24:18.589Z,0.00
2019-01-24T02:25:18.609Z,0.00
2019-01-24T02:26:18.629Z,0.00
2019-01-24T02:27:18.646Z,0.00
2019-01-24T02:28:18.666Z,0.00
2019-01-24T02:29:18.685Z,0.00
2019-01-24T02:30:18.708Z,0.00
2019-01-24T02:31:18.725Z,0.00
2019-01-24T02:32:18.749Z,0.00
2019-01-24T02:33:18.767Z,0.00
2019-01-24T02:34:18.784Z,0.00
2019-01-24T02:35:18.805Z,0.00
2019-01-24T02:36:18.825Z,0.00
2019-01-24T02:37:18.843Z,0.00
2019-01-24T02:38:18.867Z,0.00
2019-01-24T02:39:18.886Z,0.00
2019-01-24T02:40:18.903Z,0.00
2019-01-24T02:41:18.931Z,0.00
2019-01-24T02:42:18.943Z,0.00
2019-01-24T02:43:18.963Z,0.00
2019-01-24T02:44:18.983Z,0.00
2019-01-24T02:45:19.005Z,0.00
2019-01-24T02:46:19.024Z,0.00
2019-01-24T02:47:19.044Z,0.00
2019-01-24T02:48:19.064Z,0.00
2019-01-24T02:49:19.085Z,0.00
2019-01-24T02:50:19.106Z,0.00
2019-01-24T02:51:19.122Z,0.00
2019-01-24T02:52:19.145Z,0.00
2019-01-24T02:53:19.164Z,0.00
2019-01-24T02:54:19.182Z,0.00
2019-01-24T02:55:19.203Z,0.00
2019-01-24T02:56:19.225Z,0.00
2019-01-24T02:57:19.241Z,0.00
2019-01-24T02:58:19.266Z,0.00
2019-01-24T02:59:19.286Z,0.00
2019-01-24T03:00:19.301Z,0.00
2019-01-24T03:01:19.326Z,0.00
2019-01-24T03:02:19.341Z,0.00
2019-01-24T03:03:19.366Z,0.00
2019-01-24T03:04:19.383Z,0.00
2019-01-24T03:05:19.404Z,0.00
2019-01-24T03:06:19.421Z,0.00
2019-01-24T03:07:19.441Z,0.00
2019-01-24T03:08:19.461Z,0.00
2019-01-24T03:09:19.481Z,0.00
2019-01-24T03:10:19.500Z,0.00
2019-01-24T03:11:19.523Z,0.00
2019-01-24T03:12:19.544Z,0.00
2019-01-24T03:13:19.561Z,0.00
2019-01-24T03:14:19.580Z,0.00
2019-01-24T03:15:19.602Z,0.00
2019-01-24T03:16:19.662Z,0.00
2019-01-24T03:17:19.641Z,0.00
2019-01-24T03:18:19.663Z,0.00
2019-01-24T03:19:19.684Z,0.00
2019-01-24T03:20:19.706Z,0.00
2019-01-24T03:21:19.721Z,0.00
2019-01-24T03:22:19.745Z,0.00
2019-01-24T03:23:19.762Z,0.00
2019-01-24T03:24:19.782Z,0.00
2019-01-24T03:25:19.806Z,0.00
2019-01-24T03:26:19.821Z,0.00
2019-01-24T03:27:19.843Z,0.00
2019-01-24T03:28:19.868Z,0.00
2019-01-24T03:29:19.886Z,0.00
2019-01-24T03:30:20.033Z,0.00
2019-01-24T03:31:19.932Z,0.00
2019-01-24T03:32:19.944Z,0.00
2019-01-24T03:33:19.963Z,0.00
2019-01-24T03:34:19.984Z,0.00
2019-01-24T03:35:20.004Z,0.00
2019-01-24T03:36:20.029Z,0.00
2019-01-24T03:37:20.046Z,0.00
2019-01-24T03:38:20.065Z,0.00
2019-01-24T03:39:20.084Z,0.00
2019-01-24T03:40:20.105Z,0.00
2019-01-24T03:41:20.123Z,0.00
2019-01-24T03:42:20.144Z,0.00
2019-01-24T03:43:20.164Z,0.00
2019-01-24T03:44:20.187Z,0.00
2019-01-24T03:45:20.204Z,0.00
2019-01-24T03:46:20.224Z,0.00
2019-01-24T03:47:20.247Z,0.00
2019-01-24T03:48:20.270Z,0.00
2019-01-24T03:49:20.288Z,0.00
2019-01-24T03:50:20.305Z,0.00
2019-01-24T03:51:20.329Z,0.00
2019-01-24T03:52:20.345Z,0.00
2019-01-24T03:53:20.368Z,0.00
2019-01-24T03:54:20.386Z,0.00
2019-01-24T03:55:20.411Z,0.00
2019-01-24T03:56:20.428Z,0.00
2019-01-24T03:57:20.453Z,0.00
2019-01-24T03:58:20.471Z,0.00
2019-01-24T03:59:20.488Z,0.00
2019-01-24T04:00:20.571Z,0.00
2019-01-24T04:01:20.530Z,0.00
2019-01-24T04:02:20.555Z,0.00
2019-01-24T04:03:20.571Z,0.00
2019-01-24T04:04:20.589Z,0.00
2019-01-24T04:05:20.610Z,0.00
2019-01-24T04:06:20.630Z,0.00
2019-01-24T04:07:20.653Z,0.00
2019-01-24T04:08:20.709Z,0.00
2019-01-24T04:09:20.691Z,0.00
2019-01-24T04:10:20.714Z,0.00
2019-01-24T04:11:20.732Z,0.00
2019-01-24T04:12:20.753Z,0.00
2019-01-24T04:13:20.773Z,0.00
2019-01-24T04:14:20.794Z,0.00
2019-01-24T04:15:20.813Z,0.00
2019-01-24T04:16:20.836Z,0.00
2019-01-24T04:17:20.856Z,0.00
2019-01-24T04:18:20.878Z,0.00
2019-01-24T04:19:20.900Z,0.00
2019-01-24T04:20:20.916Z,0.00
2019-01-24T04:21:20.937Z,0.00
2019-01-24T04:22:20.959Z,0.00
2019-01-24T04:23:20.980Z,0.00
2019-01-24T04:24:21.001Z,0.00
2019-01-24T04:25:21.020Z,0.00
2019-01-24T04:26:21.046Z,0.00
2019-01-24T04:27:21.060Z,0.00
2019-01-24T04:28:21.082Z,0.00
2019-01-24T04:29:21.100Z,0.00
2019-01-24T04:30:21.120Z,0.00
2019-01-24T04:31:21.143Z,0.00
2019-01-24T04:32:21.161Z,0.00
2019-01-24T04:33:21.187Z,0.00
2019-01-24T04:34:21.204Z,0.00
2019-01-24T04:35:21.224Z,0.00
2019-01-24T04:36:21.248Z,0.00
2019-01-24T04:37:21.266Z,0.00
2019-01-24T04:38:21.286Z,0.00
2019-01-24T04:39:21.308Z,0.00
2019-01-24T04:40:21.327Z,0.00
2019-01-24T04:41:21.346Z,0.00
2019-01-24T04:42:21.366Z,0.00
2019-01-24T04:43:21.393Z,0.00
2019-01-24T04:44:21.409Z,0.00
2019-01-24T04:45:21.428Z,0.00
2019-01-24T04:46:21.450Z,0.00
2019-01-24T04:47:21.470Z,0.00
2019-01-24T04:48:21.492Z,0.00
2019-01-24T04:49:21.509Z,0.00
2019-01-24T04:50:21.536Z,0.00
2019-01-24T04:51:21.555Z,0.00
2019-01-24T04:52:21.575Z,0.00
2019-01-24T04:53:21.594Z,0.00
2019-01-24T04:54:21.616Z,0.00
2019-01-24T04:55:21.635Z,0.00
2019-01-24T04:56:21.654Z,0.00
2019-01-24T04:57:21.675Z,0.00
2019-01-24T04:58:21.696Z,0.00
2019-01-24T04:59:21.719Z,0.00
2019-01-24T05:00:21.738Z,0.00
2019-01-24T05:01:21.757Z,0.00
2019-01-24T05:02:21.780Z,0.00
2019-01-24T05:03:21.800Z,0.00
2019-01-24T05:04:21.824Z,0.00
2019-01-24T05:05:27.450Z,0.00
2019-01-24T05:06:21.864Z,0.00
2019-01-24T05:07:21.882Z,0.00
2019-01-24T05:08:21.907Z,0.00
2019-01-24T05:09:21.928Z,0.00
2019-01-24T05:10:21.948Z,0.00
2019-01-24T05:11:21.971Z,0.00
2019-01-24T05:12:21.985Z,0.00
2019-01-24T05:13:22.008Z,0.00
2019-01-24T05:14:22.034Z,0.00
2019-01-24T05:15:22.047Z,0.00
2019-01-24T05:16:22.069Z,0.00
2019-01-24T05:17:23.466Z,0.00
2019-01-24T05:18:22.106Z,0.00
2019-01-24T05:19:22.129Z,0.00
2019-01-24T05:20:22.150Z,0.00
2019-01-24T05:21:22.170Z,0.00
2019-01-24T05:22:22.197Z,0.00
2019-01-24T05:23:22.211Z,0.00
2019-01-24T05:24:22.231Z,0.00
2019-01-24T05:25:22.252Z,0.00
2019-01-24T05:26:22.273Z,0.00
2019-01-24T05:27:22.295Z,0.00
2019-01-24T05:28:22.322Z,0.00
2019-01-24T05:29:22.335Z,0.00
2019-01-24T05:30:22.358Z,0.00
2019-01-24T05:31:22.378Z,0.00
2019-01-24T05:32:22.399Z,0.00
2019-01-24T05:33:22.418Z,0.00
2019-01-24T05:34:22.439Z,0.00
2019-01-24T05:35:22.463Z,0.00
2019-01-24T05:36:22.480Z,0.00
2019-01-24T05:37:22.502Z,0.00
2019-01-24T05:38:22.520Z,0.00
2019-01-24T05:39:22.551Z,0.00
2019-01-24T05:40:22.563Z,0.00
2019-01-24T05:41:22.583Z,0.00
2019-01-24T05:42:22.604Z,0.00
2019-01-24T05:43:22.629Z,0.00
2019-01-24T05:44:22.646Z,0.00
2019-01-24T05:45:22.668Z,0.00
2019-01-24T05:46:22.690Z,0.00
2019-01-24T05:47:22.706Z,0.00
2019-01-24T05:48:22.734Z,0.00
2019-01-24T05:49:22.751Z,0.00
2019-01-24T05:50:22.770Z,0.00
2019-01-24T05:51:22.796Z,0.00
2019-01-24T05:52:22.815Z,0.00
2019-01-24T05:53:22.833Z,0.00
2019-01-24T05:54:22.858Z,0.00
2019-01-24T05:55:22.876Z,0.00
2019-01-24T05:56:22.898Z,0.00
2019-01-24T05:57:22.916Z,0.00
2019-01-24T05:58:22.938Z,0.00
2019-01-24T05:59:22.961Z,0.00
2019-01-24T06:00:22.980Z,0.00
2019-01-24T06:01:22.998Z,0.00
2019-01-24T06:02:23.022Z,0.00
2019-01-24T06:03:23.045Z,0.00
2019-01-24T06:04:23.064Z,0.00
2019-01-24T06:05:23.085Z,0.00
2019-01-24T06:06:23.103Z,0.00
2019-01-24T06:07:23.126Z,0.00
2019-01-24T06:08:23.146Z,0.00
2019-01-24T06:09:23.167Z,0.00
2019-01-24T06:10:23.186Z,0.00
2019-01-24T06:11:23.206Z,0.00
2019-01-24T06:12:23.229Z,0.00
2019-01-24T06:13:23.246Z,0.00
2019-01-24T06:14:23.274Z,0.00
2019-01-24T06:15:23.293Z,0.00
2019-01-24T06:16:23.312Z,0.00
2019-01-24T06:17:23.332Z,0.00
2019-01-24T06:18:23.352Z,0.00
2019-01-24T06:19:23.375Z,0.00
2019-01-24T06:20:23.394Z,0.00
2019-01-24T06:21:23.416Z,0.00
2019-01-24T06:22:23.434Z,0.00
2019-01-24T06:23:23.459Z,0.00
2019-01-24T06:24:23.481Z,0.00
2019-01-24T06:25:23.508Z,0.00
2019-01-24T06:26:23.520Z,0.00
2019-01-24T06:27:23.539Z,0.00
2019-01-24T06:28:23.563Z,0.00
2019-01-24T06:29:23.580Z,0.00
2019-01-24T06:30:23.610Z,0.00
2019-01-24T06:31:23.625Z,0.00
2019-01-24T06:32:23.644Z,0.00
2019-01-24T06:33:23.666Z,0.00
2019-01-24T06:34:23.691Z,0.00
2019-01-24T06:35:23.707Z,0.00
2019-01-24T06:36:23.729Z,0.00
2019-01-24T06:37:23.749Z,0.00
2019-01-24T06:38:23.771Z,0.00
2019-01-24T06:39:23.789Z,0.00
2019-01-24T06:40:23.811Z,0.00
2019-01-24T06:41:23.830Z,0.00
2019-01-24T06:42:23.852Z,0.00
2019-01-24T06:43:23.918Z,0.00
2019-01-24T06:44:23.892Z,0.00
2019-01-24T06:45:23.914Z,0.00
2019-01-24T06:46:23.934Z,0.00
2019-01-24T06:47:23.955Z,5.63
2019-01-24T06:48:23.976Z,5.63
2019-01-24T06:49:23.997Z,5.63
2019-01-24T06:50:24.020Z,5.63
2019-01-24T06:51:24.039Z,5.63
2019-01-24T06:52:24.063Z,5.63
2019-01-24T06:53:24.079Z,5.63
2019-01-24T06:54:24.105Z,5.63
2019-01-24T06:55:24.123Z,5.63
2019-01-24T06:56:24.145Z,5.63
2019-01-24T06:57:24.161Z,5.63
2019-01-24T06:58:24.186Z,5.63
2019-01-24T06:59:24.208Z,5.63
2019-01-24T07:00:24.227Z,5.63
2019-01-24T07:01:24.248Z,5.63
2019-01-24T07:02:24.268Z,11.25
2019-01-24T07:03:24.288Z,11.25
2019-01-24T07:04:24.310Z,11.25
2019-01-24T07:05:24.330Z,11.25
2019-01-24T07:06:24.352Z,11.25
2019-01-24T07:07:24.373Z,11.25
2019-01-24T07:08:24.394Z,16.88
2019-01-24T07:09:24.414Z,16.88
2019-01-24T07:10:24.437Z,16.88
2019-01-24T07:11:24.457Z,16.88
2019-01-24T07:12:24.483Z,16.88
2019-01-24T07:13:24.498Z,16.88
2019-01-24T07:14:24.519Z,22.50
2019-01-24T07:15:24.541Z,22.50
2019-01-24T07:16:24.560Z,22.50
2019-01-24T07:17:24.583Z,22.50
2019-01-24T07:18:24.603Z,22.50
2019-01-24T07:19:24.626Z,28.13
2019-01-24T07:20:24.646Z,28.13
2019-01-24T07:21:24.666Z,28.13
2019-01-24T07:22:24.688Z,28.13
2019-01-24T07:23:24.708Z,28.13
2019-01-24T07:24:24.729Z,28.13
2019-01-24T07:25:24.749Z,28.13
2019-01-24T07:26:24.770Z,33.75
2019-01-24T07:27:24.795Z,33.75
2019-01-24T07:28:24.817Z,33.75
2019-01-24T07:29:24.834Z,33.75
2019-01-24T07:30:24.856Z,33.75
2019-01-24T07:31:24.879Z,33.75
2019-01-24T07:32:24.898Z,33.75
2019-01-24T07:33:24.920Z,33.75
2019-01-24T07:34:24.942Z,33.75
2019-01-24T07:35:24.962Z,39.38
2019-01-24T07:36:24.983Z,39.38
2019-01-24T07:37:25.002Z,39.38
2019-01-24T07:38:25.024Z,39.38
2019-01-24T07:39:25.047Z,39.38
2019-01-24T07:40:25.065Z,39.38
2019-01-24T07:41:25.087Z,39.38
2019-01-24T07:42:25.110Z,39.38
2019-01-24T07:43:25.132Z,39.38
2019-01-24T07:44:25.154Z,45.00
2019-01-24T07:45:25.171Z,45.00
2019-01-24T07:46:25.193Z,45.00
2019-01-24T07:47:25.220Z,45.00
2019-01-24T07:48:25.239Z,50.63
2019-01-24T07:49:25.258Z,50.63
2019-01-24T07:50:25.328Z,50.63
2019-01-24T07:51:25.300Z,56.25
2019-01-24T07:52:25.323Z,56.25
2019-01-24T07:53:25.343Z,56.25
2019-01-24T07:54:25.362Z,56.25
2019-01-24T07:55:25.388Z,61.88
2019-01-24T07:56:25.407Z,61.88
2019-01-24T07:57:25.432Z,61.88
2019-01-24T07:58:25.449Z,61.88
2019-01-24T07:59:25.486Z,61.88
2019-01-24T08:00:25.491Z,67.50
2019-01-24T08:01:25.513Z,67.50
2019-01-24T08:02:25.532Z,67.50
2019-01-24T08:03:25.556Z,67.50
2019-01-24T08:04:25.578Z,67.50
2019-01-24T08:05:25.602Z,73.13
2019-01-24T08:06:25.617Z,73.13
2019-01-24T08:07:25.642Z,73.13
2019-01-24T08:08:25.664Z,73.13
2019-01-24T08:09:25.685Z,73.13
2019-01-24T08:10:25.714Z,73.13
2019-01-24T08:11:25.732Z,73.13
2019-01-24T08:12:25.749Z,73.13
2019-01-24T08:13:25.768Z,73.13
2019-01-24T08:14:25.792Z,73.13
2019-01-24T08:15:25.814Z,78.75
2019-01-24T08:16:25.836Z,78.75
2019-01-24T08:17:25.855Z,78.75
2019-01-24T08:18:25.878Z,84.38
2019-01-24T08:19:25.898Z,84.38
2019-01-24T08:20:25.923Z,84.38
2019-01-24T08:21:25.941Z,84.38
2019-01-24T08:22:25.965Z,84.38
2019-01-24T08:23:25.986Z,84.38
2019-01-24T08:24:26.009Z,90.00
2019-01-24T08:25:26.029Z,90.00
2019-01-24T08:26:26.051Z,90.00
2019-01-24T08:27:26.074Z,95.63
2019-01-24T08:28:26.094Z,95.63
2019-01-24T08:29:26.114Z,101.25
2019-01-24T08:30:26.138Z,101.25
2019-01-24T08:31:26.159Z,106.88
2019-01-24T08:32:26.179Z,106.88
2019-01-24T08:33:26.204Z,106.88
2019-01-24T08:34:26.222Z,112.50
2019-01-24T08:35:26.248Z,112.50
2019-01-24T08:36:26.266Z,112.50
2019-01-24T08:37:26.290Z,112.50
2019-01-24T08:38:26.310Z,112.50
2019-01-24T08:39:26.333Z,106.88
2019-01-24T08:40:26.355Z,106.88
2019-01-24T08:41:26.378Z,106.88
2019-01-24T08:42:26.400Z,106.88
2019-01-24T08:43:26.420Z,112.50
2019-01-24T08:44:26.445Z,112.50
2019-01-24T08:45:26.463Z,112.50
2019-01-24T08:46:26.484Z,118.13
2019-01-24T08:47:26.511Z,118.13
2019-01-24T08:48:26.533Z,123.75
2019-01-24T08:49:26.550Z,123.75
2019-01-24T08:50:26.619Z,123.75
2019-01-24T08:51:26.595Z,123.75
2019-01-24T08:52:26.622Z,129.38
2019-01-24T08:53:26.639Z,129.38
2019-01-24T08:54:26.662Z,135.00
2019-01-24T08:55:26.684Z,135.00
2019-01-24T08:56:26.708Z,140.63
2019-01-24T08:57:26.732Z,140.63
2019-01-24T08:58:26.750Z,146.25
2019-01-24T08:59:29.741Z,146.25
2019-01-24T09:00:26.798Z,151.88
2019-01-24T09:01:26.815Z,151.88
2019-01-24T09:02:26.839Z,151.88
2019-01-24T09:03:26.862Z,151.88
2019-01-24T09:04:26.895Z,157.50
2019-01-24T09:05:26.913Z,157.50
2019-01-24T09:06:26.928Z,157.50
2019-01-24T09:07:26.951Z,157.50
2019-01-24T09:08:26.972Z,157.50
2019-01-24T09:09:26.994Z,157.50
2019-01-24T09:10:27.017Z,157.50
2019-01-24T09:11:27.040Z,163.13
2019-01-24T09:12:30.479Z,163.13
2019-01-24T09:13:27.083Z,168.75
2019-01-24T09:14:27.106Z,168.75
2019-01-24T09:15:27.128Z,174.38
2019-01-24T09:16:27.157Z,174.38
2019-01-24T09:17:27.176Z,174.38
2019-01-24T09:18:27.196Z,174.38
2019-01-24T09:19:27.220Z,174.38
2019-01-24T09:20:27.243Z,180.00
2019-01-24T09:21:27.269Z,185.63
2019-01-24T09:22:27.288Z,191.25
2019-01-24T09:23:27.309Z,191.25
2019-01-24T09:24:27.332Z,191.25
2019-01-24T09:25:27.354Z,191.25
2019-01-24T09:26:27.377Z,191.25
2019-01-24T09:27:27.400Z,191.25
2019-01-24T09:28:27.424Z,196.88
2019-01-24T09:29:27.446Z,196.88
2019-01-24T09:30:27.468Z,202.50
2019-01-24T09:31:27.497Z,202.50
2019-01-24T09:32:27.515Z,208.13
2019-01-24T09:33:27.534Z,208.13
2019-01-24T09:34:27.560Z,213.75
2019-01-24T09:35:27.582Z,213.75
2019-01-24T09:36:29.326Z,213.75
2019-01-24T09:37:27.629Z,219.38
2019-01-24T09:38:27.652Z,219.38
2019-01-24T09:39:27.675Z,225.00
2019-01-24T09:40:27.697Z,225.00
2019-01-24T09:41:27.718Z,219.38
2019-01-24T09:42:27.743Z,219.38
2019-01-24T09:43:27.764Z,213.75
2019-01-24T09:44:27.787Z,208.13
2019-01-24T09:45:27.811Z,202.50
2019-01-24T09:46:27.833Z,202.50
2019-01-24T09:47:27.857Z,196.88
2019-01-24T09:48:27.881Z,196.88
2019-01-24T09:49:27.903Z,202.50
2019-01-24T09:50:27.926Z,202.50
2019-01-24T09:51:27.948Z,202.50
2019-01-24T09:52:27.976Z,208.13
2019-01-24T09:53:27.994Z,208.13
2019-01-24T09:54:28.019Z,208.13
2019-01-24T09:55:28.040Z,213.75
2019-01-24T09:56:28.066Z,213.75
2019-01-24T09:57:28.086Z,219.38
2019-01-24T09:58:28.109Z,219.38
2019-01-24T09:59:28.135Z,225.00
2019-01-24T10:00:28.158Z,225.00
2019-01-24T10:01:28.179Z,230.63
2019-01-24T10:02:28.205Z,230.63
2019-01-24T10:03:28.226Z,236.25
2019-01-24T10:04:28.251Z,236.25
2019-01-24T10:05:28.275Z,236.25
2019-01-24T10:06:28.299Z,241.88
2019-01-24T10:07:28.365Z,247.50
2019-01-24T10:08:28.343Z,247.50
2019-01-24T10:09:28.366Z,253.13
2019-01-24T10:10:28.395Z,264.38
2019-01-24T10:11:28.412Z,270.00
2019-01-24T10:12:28.439Z,275.63
2019-01-24T10:13:28.458Z,281.25
2019-01-24T10:14:28.485Z,275.63
2019-01-24T10:15:28.506Z,270.00
2019-01-24T10:16:28.529Z,264.38
2019-01-24T10:17:28.553Z,258.75
2019-01-24T10:18:28.575Z,247.50
2019-01-24T10:19:28.602Z,236.25
2019-01-24T10:20:28.622Z,236.25
2019-01-24T10:21:28.646Z,230.63
2019-01-24T10:22:28.670Z,225.00
2019-01-24T10:23:28.693Z,225.00
2019-01-24T10:24:28.718Z,225.00
2019-01-24T10:25:28.740Z,230.63
2019-01-24T10:26:28.766Z,230.63
2019-01-24T10:27:28.789Z,236.25
2019-01-24T10:28:28.811Z,236.25
2019-01-24T10:29:28.837Z,236.25
2019-01-24T10:30:28.857Z,241.88
2019-01-24T10:31:29.704Z,241.88
2019-01-24T10:32:28.907Z,241.88
2019-01-24T10:33:28.929Z,241.88
2019-01-24T10:34:28.953Z,241.88
2019-01-24T10:35:28.984Z,247.50
2019-01-24T10:36:29.000Z,253.13
2019-01-24T10:37:29.026Z,258.75
2019-01-24T10:38:29.049Z,264.38
2019-01-24T10:39:29.071Z,264.38
2019-01-24T10:40:29.101Z,258.75
2019-01-24T10:41:29.118Z,258.75
2019-01-24T10:42:29.147Z,253.13
2019-01-24T10:43:29.167Z,247.50
2019-01-24T10:44:29.194Z,247.50
2019-01-24T10:45:29.217Z,241.88
2019-01-24T10:46:29.240Z,241.88
2019-01-24T10:47:29.263Z,236.25
2019-01-24T10:48:29.287Z,230.63
2019-01-24T10:49:29.310Z,230.63
2019-01-24T10:50:29.338Z,225.00
2019-01-24T10:51:29.362Z,225.00
2019-01-24T10:52:29.384Z,230.63
2019-01-24T10:53:29.405Z,230.63
2019-01-24T10:54:29.436Z,236.25
2019-01-24T10:55:29.457Z,236.25
2019-01-24T10:56:29.478Z,241.88
2019-01-24T10:57:29.502Z,241.88
2019-01-24T10:58:29.529Z,241.88
2019-01-24T10:59:29.555Z,241.88
2019-01-24T11:00:29.575Z,241.88
2019-01-24T11:01:29.600Z,241.88
2019-01-24T11:02:29.622Z,247.50
2019-01-24T11:03:29.650Z,247.50
2019-01-24T11:04:29.672Z,247.50
2019-01-24T11:05:29.698Z,253.13
2019-01-24T11:06:29.720Z,258.75
2019-01-24T11:07:29.744Z,253.13
2019-01-24T11:08:29.769Z,258.75
2019-01-24T11:09:29.794Z,258.75
2019-01-24T11:10:29.813Z,264.38
2019-01-24T11:11:29.840Z,264.38
2019-01-24T11:12:29.863Z,270.00
2019-01-24T11:13:29.886Z,270.00
2019-01-24T11:14:29.912Z,270.00
2019-01-24T11:15:29.938Z,264.38
2019-01-24T11:16:29.960Z,270.00
2019-01-24T11:17:29.984Z,270.00
2019-01-24T11:18:30.013Z,275.63
2019-01-24T11:19:30.034Z,281.25
2019-01-24T11:20:30.058Z,292.50
2019-01-24T11:21:30.082Z,292.50
2019-01-24T11:22:30.106Z,298.13
2019-01-24T11:23:30.138Z,303.75
2019-01-24T11:24:30.154Z,309.38
2019-01-24T11:25:30.177Z,309.38
2019-01-24T11:26:30.202Z,309.38
2019-01-24T11:27:30.226Z,303.75
2019-01-24T11:28:30.255Z,303.75
2019-01-24T11:29:30.276Z,309.38
2019-01-24T11:30:30.301Z,303.75
2019-01-24T11:31:30.325Z,309.38
2019-01-24T11:32:30.349Z,303.75
2019-01-24T11:33:30.375Z,315.00
2019-01-24T11:34:30.403Z,292.50
2019-01-24T11:35:30.425Z,286.88
2019-01-24T11:36:30.447Z,298.13
2019-01-24T11:37:30.470Z,298.13
2019-01-24T11:38:30.496Z,303.75
2019-01-24T11:39:30.521Z,315.00
2019-01-24T11:40:30.547Z,438.75
2019-01-24T11:41:30.571Z,427.50
2019-01-24T11:42:30.595Z,320.63
2019-01-24T11:43:30.631Z,315.00
2019-01-24T11:44:30.650Z,326.25
2019-01-24T11:45:30.670Z,320.63
2019-01-24T11:46:30.693Z,309.38
2019-01-24T11:47:30.718Z,303.75
2019-01-24T11:48:30.745Z,303.75
2019-01-24T11:49:30.768Z,286.88
2019-01-24T11:50:30.793Z,286.88
2019-01-24T11:51:30.818Z,275.63
2019-01-24T11:52:30.846Z,270.00
2019-01-24T11:53:30.873Z,264.38
2019-01-24T11:54:30.890Z,258.75
2019-01-24T11:55:30.918Z,258.75
2019-01-24T11:56:30.943Z,253.13
2019-01-24T11:57:30.966Z,253.13
2019-01-24T11:58:30.995Z,253.13
2019-01-24T11:59:31.017Z,253.13
2019-01-24T12:00:31.042Z,253.13
2019-01-24T12:01:31.069Z,247.50
2019-01-24T12:02:31.089Z,241.88
2019-01-24T12:03:31.118Z,241.88
2019-01-24T12:04:31.140Z,236.25
2019-01-24T12:05:31.169Z,236.25
2019-01-24T12:06:31.190Z,236.25
2019-01-24T12:07:31.213Z,230.63
2019-01-24T12:08:31.242Z,230.63
2019-01-24T12:09:31.262Z,230.63
2019-01-24T12:10:31.290Z,230.63
2019-01-24T12:11:31.310Z,230.63
2019-01-24T12:12:31.336Z,230.63
2019-01-24T12:13:31.358Z,230.63
2019-01-24T12:14:31.381Z,230.63
2019-01-24T12:15:31.412Z,230.63
2019-01-24T12:16:31.453Z,230.63
2019-01-24T12:17:31.459Z,225.00
2019-01-24T12:18:31.479Z,225.00
2019-01-24T12:19:31.506Z,225.00
2019-01-24T12:20:31.532Z,225.00
2019-01-24T12:21:31.555Z,225.00
2019-01-24T12:22:31.576Z,225.00
2019-01-24T12:23:31.604Z,225.00
2019-01-24T12:24:31.627Z,225.00
2019-01-24T12:25:31.652Z,225.00
2019-01-24T12:26:31.682Z,225.00
2019-01-24T12:27:31.697Z,219.38
2019-01-24T12:28:31.934Z,219.38
2019-01-24T12:29:31.745Z,219.38
2019-01-24T12:30:31.774Z,213.75
2019-01-24T12:31:31.795Z,213.75
2019-01-24T12:32:31.821Z,208.13
2019-01-24T12:33:31.844Z,208.13
2019-01-24T12:34:31.871Z,208.13
2019-01-24T12:35:31.893Z,208.13
2019-01-24T12:36:31.920Z,208.13
2019-01-24T12:37:31.941Z,208.13
2019-01-24T12:38:31.970Z,208.13
2019-01-24T12:39:31.993Z,202.50
2019-01-24T12:40:32.015Z,202.50
2019-01-24T12:41:32.038Z,202.50
2019-01-24T12:42:32.061Z,196.88
2019-01-24T12:43:32.088Z,191.25
2019-01-24T12:44:32.112Z,191.25
2019-01-24T12:45:32.137Z,185.63
2019-01-24T12:46:32.162Z,185.63
2019-01-24T12:47:32.184Z,180.00
2019-01-24T12:48:32.214Z,180.00
2019-01-24T12:49:32.233Z,180.00
2019-01-24T12:50:32.258Z,174.38
2019-01-24T12:51:32.284Z,174.38
2019-01-24T12:52:32.309Z,174.38
2019-01-24T12:53:32.330Z,174.38
2019-01-24T12:54:32.354Z,168.75
2019-01-24T12:55:32.379Z,168.75
2019-01-24T12:56:32.403Z,168.75
2019-01-24T12:57:32.430Z,163.13